Time;durP1;ratioP1;P1;durP2;ratioP2;P2;SDS_P1;SDS_P2;PMS_P1;PMS_P2;Temp;Humidity;BMP_temperature;BMP_pressure;BME280_temperature;BME280_humidity;BME280_pressure;Samples;Min_cycle;Max_cycle;Signal;HPM_P1;HPM_P2
2022/03/07 00:01:05;;;;;;;36.10;17.40;;;;;;;0.40;79.92;102293.56;5055667;28;20131;-75
2022/03/07 00:03:32;;;;;;;38.28;18.92;;;;;;;0.35;78.63;102299.88;5068020;28;20109;-73
2022/03/07 00:05:59;;;;;;;38.95;20.52;;;;;;;0.38;79.46;102310.19;5070790;28;20135;-74
2022/03/07 00:08:25;;;;;;;38.00;20.52;;;;;;;0.36;80.11;102304.22;5081019;28;20080;-75
2022/03/07 00:11:03;;;;;;;36.33;18.58;;;;;;;0.38;81.32;102315.63;5064496;28;20406;-74
2022/03/07 00:13:29;;;;;;;33.40;18.20;;;;;;;0.36;79.89;102314.28;5070274;28;20127;-74
2022/03/07 00:15:56;;;;;;;30.17;15.82;;;;;;;0.26;79.50;102307.03;5061000;28;20102;-74
2022/03/07 00:18:23;;;;;;;31.75;16.73;;;;;;;0.29;79.92;102314.63;5065404;28;20505;-74
2022/03/07 00:20:49;;;;;;;34.72;18.23;;;;;;;0.24;79.94;102317.44;5066019;28;20135;-74
2022/03/07 00:23:16;;;;;;;32.70;17.48;;;;;;;0.22;81.74;102321.53;5070139;28;20139;-73
2022/03/07 00:25:42;;;;;;;30.88;16.85;;;;;;;0.21;82.05;102325.34;5072598;28;20050;-74
2022/03/07 00:28:09;;;;;;;33.22;18.10;;;;;;;0.19;81.84;102322.09;5070034;28;20105;-74
2022/03/07 00:30:36;;;;;;;33.00;17.10;;;;;;;0.16;81.93;102322.69;5068028;28;20137;-74
2022/03/07 00:33:04;;;;;;;33.80;17.42;;;;;;;0.16;82.08;102326.22;5064066;28;20491;-73
2022/03/07 00:35:31;;;;;;;38.08;18.83;;;;;;;0.11;80.59;102323.56;5074185;28;20094;-74
2022/03/07 00:37:58;;;;;;;33.22;17.70;;;;;;;0.11;80.16;102322.75;5067171;28;20570;-73
2022/03/07 00:40:24;;;;;;;31.35;17.02;;;;;;;0.04;80.71;102328.53;5066386;28;20084;-75
2022/03/07 00:42:51;;;;;;;37.08;20.67;;;;;;;-0.03;82.70;102325.34;5067832;28;20044;-72
2022/03/07 00:45:17;;;;;;;38.40;21.45;;;;;;;0.03;82.81;102324.16;5067431;28;20470;-74
2022/03/07 00:47:44;;;;;;;38.72;19.83;;;;;;;-0.05;82.96;102324.81;5070043;28;20170;-75
2022/03/07 00:50:10;;;;;;;41.25;21.17;;;;;;;-0.12;82.58;102322.44;5079253;28;20118;-76
2022/03/07 00:52:37;;;;;;;43.22;21.88;;;;;;;-0.06;83.58;102325.91;5056978;28;20619;-74
2022/03/07 00:55:04;;;;;;;37.58;18.80;;;;;;;-0.02;86.06;102318.81;5066659;28;20052;-75
2022/03/07 00:57:30;;;;;;;30.95;16.67;;;;;;;0.03;86.70;102329.63;5063002;28;20087;-74
2022/03/07 00:59:57;;;;;;;38.35;17.92;;;;;;;0.06;85.01;102322.81;5052378;28;20041;-75
2022/03/07 01:02:25;;;;;;;31.70;17.90;;;;;;;0.03;85.40;102314.09;5071600;28;20203;-75
2022/03/07 01:04:51;;;;;;;28.17;15.60;;;;;;;0.07;85.48;102321.69;5058249;28;20048;-73
2022/03/07 01:07:18;;;;;;;32.30;17.35;;;;;;;0.05;85.52;102308.38;5071939;28;20139;-75
2022/03/07 01:09:45;;;;;;;34.20;17.73;;;;;;;-0.02;85.07;102306.00;5067119;28;21493;-76
2022/03/07 01:12:11;;;;;;;35.92;19.27;;;;;;;0.08;86.14;102315.16;5067448;28;20059;-75
2022/03/07 01:14:38;;;;;;;30.85;16.77;;;;;;;0.10;85.82;102315.69;5049134;28;20136;-75
2022/03/07 01:17:05;;;;;;;31.50;17.55;;;;;;;0.11;85.59;102315.41;5070361;28;20806;-75
2022/03/07 01:19:31;;;;;;;32.95;17.75;;;;;;;0.06;85.16;102311.94;5073732;28;20450;-72
2022/03/07 01:21:58;;;;;;;33.55;17.63;;;;;;;0.04;85.71;102310.28;5064854;28;20511;-75
2022/03/07 01:24:24;;;;;;;33.17;17.70;;;;;;;0.06;85.96;102310.00;5062839;28;20338;-75
2022/03/07 01:26:51;;;;;;;33.30;18.35;;;;;;;0.07;85.85;102314.34;5070900;28;20148;-74
2022/03/07 01:29:19;;;;;;;35.05;18.60;;;;;;;-0.01;85.51;102296.75;5069004;28;20144;-76
2022/03/07 01:31:46;;;;;;;36.58;18.35;;;;;;;0.01;86.04;102304.63;5058991;28;20053;-73
2022/03/07 01:34:13;;;;;;;32.72;17.77;;;;;;;0.03;87.72;102307.06;5063214;28;20055;-75
2022/03/07 01:36:41;;;;;;;32.85;16.60;;;;;;;-0.05;86.51;102311.22;5064508;28;20136;-73
2022/03/07 01:39:07;;;;;;;35.28;18.90;;;;;;;-0.12;86.24;102311.56;5067484;28;20424;-72
2022/03/07 01:41:34;;;;;;;39.22;19.60;;;;;;;-0.20;85.99;102303.22;5064870;28;20502;-75
2022/03/07 01:44:00;;;;;;;37.10;19.70;;;;;;;-0.14;88.29;102302.03;5067947;28;20420;-72
2022/03/07 01:46:28;;;;;;;38.20;19.38;;;;;;;-0.04;88.32;102301.94;5071273;28;20055;-72
2022/03/07 01:48:55;;;;;;;37.92;20.05;;;;;;;-0.08;86.87;102301.72;5069367;28;20522;-72
2022/03/07 01:51:22;;;;;;;38.03;20.60;;;;;;;-0.04;87.98;102301.94;5076883;28;20056;-73
2022/03/07 01:53:49;;;;;;;33.15;18.67;;;;;;;0.01;87.58;102299.97;5070477;28;20139;-74
2022/03/07 01:56:15;;;;;;;37.45;17.98;;;;;;;-0.02;87.20;102297.84;5070633;28;20419;-73
2022/03/07 01:58:42;;;;;;;35.47;18.50;;;;;;;0.04;87.08;102302.13;5066105;28;20052;-73
2022/03/07 02:01:09;;;;;;;38.78;20.58;;;;;;;0.03;87.22;102297.78;5056564;28;20094;-72
2022/03/07 02:03:36;;;;;;;33.75;18.27;;;;;;;0.11;88.62;102311.84;5073980;28;20050;-72
2022/03/07 02:06:03;;;;;;;36.47;19.63;;;;;;;0.12;87.58;102299.84;5068753;28;20079;-73
2022/03/07 02:08:31;;;;;;;39.90;20.70;;;;;;;0.09;86.27;102301.25;5072826;28;20078;-72
2022/03/07 02:10:58;;;;;;;40.45;21.33;;;;;;;0.07;86.94;102297.22;5075792;28;20056;-73
2022/03/07 02:13:24;;;;;;;35.83;19.23;;;;;;;0.08;88.61;102301.53;5069288;28;20599;-73
2022/03/07 02:15:55;;;;;;;37.20;19.33;;;;;;;0.14;87.64;102303.13;5069704;28;20061;-73
2022/03/07 02:18:22;;;;;;;39.08;20.25;;;;;;;0.17;87.17;102297.09;5061708;28;20045;-72
2022/03/07 02:20:56;;;;;;;43.63;21.48;;;;;;;0.15;88.00;102302.00;5066598;28;20079;-73
2022/03/07 02:23:23;;;;;;;40.25;21.58;;;;;;;0.20;89.19;102293.78;5056816;28;20419;-73
2022/03/07 02:25:49;;;;;;;37.75;20.35;;;;;;;0.24;87.75;102297.56;5067862;28;20062;-74
2022/03/07 02:28:16;;;;;;;38.17;22.27;;;;;;;0.28;88.63;102307.59;5076270;28;20737;-73
2022/03/07 02:30:43;;;;;;;41.30;22.00;;;;;;;0.28;88.67;102290.41;5066628;28;20049;-72
2022/03/07 02:33:13;;;;;;;39.50;22.65;;;;;;;0.38;88.81;102298.47;5055762;28;20600;-74
2022/03/07 02:35:39;;;;;;;42.78;22.55;;;;;;;0.40;88.43;102290.84;5066753;28;20634;-72
2022/03/07 02:38:14;;;;;;;39.42;21.80;;;;;;;0.46;87.82;102297.81;5064690;28;20045;-74
2022/03/07 02:40:41;;;;;;;42.78;22.88;;;;;;;0.51;87.74;102293.13;5068450;28;20126;-72
2022/03/07 02:43:16;;;;;;;39.75;20.42;;;;;;;0.55;87.24;102302.34;5068494;28;20059;-73
2022/03/07 02:45:43;;;;;;;39.42;21.67;;;;;;;0.57;87.86;102296.59;5070063;28;20163;-73
2022/03/07 02:48:10;;;;;;;39.85;20.98;;;;;;;0.59;87.70;102302.56;5069832;28;20139;-73
2022/03/07 02:50:37;;;;;;;38.05;20.38;;;;;;;0.61;87.37;102311.25;5068181;28;20406;-72
2022/03/07 02:53:04;;;;;;;37.63;21.08;;;;;;;0.61;87.92;102297.63;5068413;28;20048;-73
2022/03/07 02:55:33;;;;;;;41.05;20.60;;;;;;;0.61;87.74;102305.81;5069875;28;20048;-72
2022/03/07 02:58:00;;;;;;;39.65;20.90;;;;;;;0.65;87.68;102312.28;5068661;28;20132;-75
2022/03/07 03:00:27;;;;;;;34.92;19.40;;;;;;;0.69;88.15;102313.31;5069342;28;20127;-72
2022/03/07 03:02:54;;;;;;;38.92;20.10;;;;;;;0.73;88.79;102303.44;5069539;28;20080;-74
2022/03/07 03:05:21;;;;;;;35.17;19.40;;;;;;;0.67;87.58;102296.47;5069456;28;20052;-72
2022/03/07 03:07:50;;;;;;;34.33;19.45;;;;;;;0.66;88.01;102294.81;5072193;28;20121;-73
2022/03/07 03:10:19;;;;;;;34.55;18.80;;;;;;;0.64;86.81;102291.59;5070651;28;20048;-73
2022/03/07 03:12:46;;;;;;;33.38;18.80;;;;;;;0.66;87.58;102303.81;5068255;28;20056;-73
2022/03/07 03:15:13;;;;;;;34.85;17.73;;;;;;;0.71;87.75;102295.56;5068533;28;20048;-73
2022/03/07 03:17:44;;;;;;;29.23;15.13;;;;;;;0.73;87.98;102296.09;5069202;28;20058;-73
2022/03/07 03:20:13;;;;;;;27.98;15.05;;;;;;;0.80;86.68;102304.72;5067977;28;20393;-73
2022/03/07 03:22:41;;;;;;;29.83;15.77;;;;;;;0.83;87.29;102306.84;5065617;28;20053;-73
2022/03/07 03:25:09;;;;;;;29.13;15.10;;;;;;;0.85;86.30;102321.00;5069196;28;20075;-73
2022/03/07 03:27:38;;;;;;;26.13;13.63;;;;;;;0.90;85.59;102317.38;5067308;28;20044;-72
2022/03/07 03:30:07;;;;;;;29.05;15.35;;;;;;;0.93;84.70;102316.78;5067771;28;20109;-74
2022/03/07 03:32:33;;;;;;;26.25;15.15;;;;;;;0.96;84.71;102316.22;5068195;28;20568;-73
2022/03/07 03:35:00;;;;;;;28.05;15.10;;;;;;;1.00;84.63;102319.97;5067977;28;20056;-74
2022/03/07 03:37:27;;;;;;;29.27;15.40;;;;;;;1.02;84.84;102312.31;5067014;28;20052;-73
2022/03/07 03:39:54;;;;;;;29.00;15.20;;;;;;;1.05;84.56;102320.69;5069086;28;20055;-72
2022/03/07 03:42:22;;;;;;;27.95;14.52;;;;;;;1.10;84.04;102314.34;5067817;28;20076;-75
2022/03/07 03:44:49;;;;;;;25.30;13.95;;;;;;;1.13;83.49;102317.31;5068707;28;20054;-72
2022/03/07 03:47:16;;;;;;;28.30;14.07;;;;;;;1.15;82.82;102314.31;5069035;28;20048;-73
2022/03/07 03:49:42;;;;;;;32.47;15.07;;;;;;;1.22;82.94;102312.00;5068333;28;20047;-74
2022/03/07 03:52:10;;;;;;;28.45;14.52;;;;;;;1.22;83.24;102309.28;5067453;28;20090;-73
2022/03/07 03:54:36;;;;;;;25.90;14.73;;;;;;;1.23;82.28;102311.72;5067251;28;20263;-73
2022/03/07 03:57:03;;;;;;;27.80;13.85;;;;;;;1.23;83.18;102309.00;5067910;28;20053;-74
2022/03/07 03:59:31;;;;;;;26.40;13.73;;;;;;;1.29;83.01;102315.16;5068896;28;20048;-73
2022/03/07 04:01:58;;;;;;;29.60;14.10;;;;;;;1.31;82.58;102311.03;5066470;28;20627;-73
2022/03/07 04:04:25;;;;;;;27.90;13.40;;;;;;;1.33;81.56;102310.75;5068262;28;20060;-73
2022/03/07 04:06:52;;;;;;;25.65;13.57;;;;;;;1.35;80.97;102311.25;5068421;28;20114;-72
2022/03/07 04:09:24;;;;;;;25.55;13.60;;;;;;;1.36;80.96;102316.41;5075173;28;20112;-73
2022/03/07 04:11:51;;;;;;;27.88;13.30;;;;;;;1.39;81.19;102315.81;5054803;28;20829;-74
2022/03/07 04:14:17;;;;;;;26.05;13.88;;;;;;;1.41;80.74;102315.50;5067367;28;20078;-74
2022/03/07 04:16:44;;;;;;;26.95;13.93;;;;;;;1.47;80.74;102317.06;5066233;28;20636;-71
2022/03/07 04:19:11;;;;;;;24.83;13.90;;;;;;;1.47;80.50;102322.50;5066922;28;20555;-72
2022/03/07 04:21:39;;;;;;;25.35;11.90;;;;;;;1.49;80.37;102326.53;5065858;28;20052;-74
2022/03/07 04:24:07;;;;;;;26.35;12.70;;;;;;;1.51;80.11;102328.97;5065332;28;20052;-73
2022/03/07 04:26:33;;;;;;;29.45;14.05;;;;;;;1.56;79.27;102316.09;5062562;28;20544;-74
2022/03/07 04:29:00;;;;;;;25.55;12.98;;;;;;;1.57;79.28;102316.88;5066615;28;20132;-75
2022/03/07 04:31:27;;;;;;;25.92;12.75;;;;;;;1.54;79.52;102309.28;5067883;28;20131;-74
2022/03/07 04:33:53;;;;;;;24.30;12.98;;;;;;;1.58;79.38;102321.22;5067353;28;20132;-74
2022/03/07 04:36:20;;;;;;;28.85;13.88;;;;;;;1.58;79.30;102313.84;5067466;28;20059;-74
2022/03/07 04:38:47;;;;;;;26.02;13.82;;;;;;;1.60;79.77;102306.19;5068239;28;20068;-74
2022/03/07 04:41:14;;;;;;;29.15;13.77;;;;;;;1.63;81.14;102310.25;5066979;28;20052;-73
2022/03/07 04:43:41;;;;;;;27.42;14.27;;;;;;;1.66;80.37;102304.19;5066971;28;20131;-72
2022/03/07 04:46:08;;;;;;;23.48;12.80;;;;;;;1.66;79.92;102307.72;5068059;28;20075;-73
2022/03/07 04:48:35;;;;;;;24.55;13.18;;;;;;;1.60;79.17;102310.81;5067719;28;20097;-75
2022/03/07 04:51:02;;;;;;;26.13;13.20;;;;;;;1.53;79.18;102313.13;5067684;28;20059;-74
2022/03/07 04:53:28;;;;;;;24.63;12.82;;;;;;;1.53;78.52;102315.88;5067321;28;20049;-74
2022/03/07 04:55:55;;;;;;;27.83;14.40;;;;;;;1.56;78.70;102307.09;5065942;28;20135;-74
2022/03/07 04:58:22;;;;;;;26.23;13.35;;;;;;;1.61;79.55;102323.34;5069662;28;20800;-73
2022/03/07 05:00:48;;;;;;;28.48;12.88;;;;;;;1.60;80.24;102321.75;5069258;28;20359;-74
2022/03/07 05:03:15;;;;;;;28.20;14.57;;;;;;;1.60;80.97;102313.56;5068249;28;20084;-74
2022/03/07 05:05:42;;;;;;;25.75;12.88;;;;;;;1.62;80.21;102309.41;5069729;28;20056;-72
2022/03/07 05:08:08;;;;;;;25.98;12.57;;;;;;;1.62;79.32;102305.91;5074091;28;20098;-74
2022/03/07 05:10:35;;;;;;;28.95;13.43;;;;;;;1.64;78.98;102307.22;5070572;28;20551;-75
2022/03/07 05:13:01;;;;;;;24.40;11.98;;;;;;;1.64;79.62;102298.19;5066342;28;20049;-73
2022/03/07 05:15:28;;;;;;;27.02;13.27;;;;;;;1.65;80.69;102308.03;5070303;28;20050;-74
2022/03/07 05:17:54;;;;;;;27.73;12.82;;;;;;;1.66;80.52;102309.66;5065167;28;20153;-72
2022/03/07 05:20:23;;;;;;;27.00;13.35;;;;;;;1.63;79.80;102310.25;5066550;28;20612;-73
2022/03/07 05:23:09;;;;;;;26.27;12.13;;;;;;;1.58;80.21;102307.59;5078278;28;20551;-73
2022/03/07 05:25:36;;;;;;;31.27;12.10;;;;;;;1.55;81.33;102316.38;5071667;28;20131;-74
2022/03/07 05:28:02;;;;;;;20.63;9.70;;;;;;;1.58;81.01;102322.03;5071053;28;20044;-74
2022/03/07 05:30:29;;;;;;;27.08;13.10;;;;;;;1.62;80.27;102327.72;5072006;28;20092;-73
2022/03/07 05:32:56;;;;;;;22.50;11.32;;;;;;;1.60;80.07;102328.03;5070308;28;20128;-73
2022/03/07 05:35:23;;;;;;;27.65;13.32;;;;;;;1.57;80.46;102322.34;5071104;28;20135;-74
2022/03/07 05:37:50;;;;;;;28.52;12.32;;;;;;;1.58;79.92;102341.13;5071576;28;20047;-73
2022/03/07 05:40:17;;;;;;;28.85;13.23;;;;;;;1.54;81.03;102339.31;5071531;28;20048;-74
2022/03/07 05:42:44;;;;;;;31.00;13.80;;;;;;;1.56;80.65;102340.66;5070845;28;20084;-74
2022/03/07 05:45:13;;;;;;;23.33;11.98;;;;;;;1.56;80.32;102337.91;5071109;28;20088;-72
2022/03/07 05:47:40;;;;;;;22.90;12.18;;;;;;;1.55;80.60;102335.47;5068933;28;20474;-74
2022/03/07 05:50:08;;;;;;;23.40;12.35;;;;;;;1.54;81.24;102333.84;5077128;28;20126;-74
2022/03/07 05:52:35;;;;;;;25.08;12.30;;;;;;;1.50;82.18;102336.38;5069623;28;20087;-75
2022/03/07 05:55:06;;;;;;;24.20;12.15;;;;;;;1.46;81.04;102338.09;5070527;28;20079;-75
2022/03/07 05:57:34;;;;;;;27.67;12.82;;;;;;;1.43;81.71;102341.41;5069624;28;20481;-73
2022/03/07 06:00:01;;;;;;;27.42;13.30;;;;;;;1.40;81.43;102341.16;5069032;28;20067;-75
2022/03/07 06:02:28;;;;;;;25.83;12.80;;;;;;;1.40;81.76;102338.44;5071983;28;20056;-73
2022/03/07 06:04:54;;;;;;;26.60;13.00;;;;;;;1.43;82.05;102341.41;5070625;28;20702;-74
2022/03/07 06:07:21;;;;;;;29.88;13.20;;;;;;;1.44;80.82;102350.38;5072875;28;20079;-73
2022/03/07 06:09:47;;;;;;;27.30;12.80;;;;;;;1.42;81.02;102339.75;5080472;28;20052;-73
2022/03/07 06:12:14;;;;;;;27.50;12.55;;;;;;;1.43;81.82;102338.66;5069688;28;20053;-73
2022/03/07 06:14:40;;;;;;;30.33;13.73;;;;;;;1.47;81.99;102349.78;5069468;28;20060;-73
2022/03/07 06:17:07;;;;;;;26.65;11.00;;;;;;;1.47;82.90;102356.06;5079231;28;20063;-72
2022/03/07 06:19:34;;;;;;;28.02;12.20;;;;;;;1.46;82.38;102345.44;5073027;28;20502;-76
2022/03/07 06:22:00;;;;;;;27.25;13.45;;;;;;;1.44;81.90;102350.38;5070444;28;20060;-74
2022/03/07 06:24:29;;;;;;;32.30;12.75;;;;;;;1.42;82.24;102352.59;5070397;28;20049;-74
2022/03/07 06:26:56;;;;;;;22.55;11.15;;;;;;;1.37;82.36;102348.03;5076567;28;20056;-73
2022/03/07 06:29:23;;;;;;;26.83;12.90;;;;;;;1.33;81.68;102355.19;5074146;28;20044;-72
2022/03/07 06:31:50;;;;;;;24.88;13.02;;;;;;;1.29;81.86;102347.91;5069447;28;20122;-73
2022/03/07 06:34:16;;;;;;;31.73;14.40;;;;;;;1.35;82.65;102352.97;5067465;28;20056;-73
2022/03/07 06:36:43;;;;;;;31.63;14.95;;;;;;;1.36;81.93;102343.69;5070814;28;20048;-73
2022/03/07 06:39:10;;;;;;;28.33;13.65;;;;;;;1.37;82.33;102342.56;5072668;28;20172;-74
2022/03/07 06:41:36;;;;;;;29.88;15.18;;;;;;;1.38;82.97;102343.41;5069749;28;20421;-74
2022/03/07 06:44:03;;;;;;;27.83;14.55;;;;;;;1.41;82.35;102346.31;5069535;28;20048;-73
2022/03/07 06:46:30;;;;;;;30.77;13.95;;;;;;;1.41;82.15;102348.22;5068466;28;20082;-75
2022/03/07 06:48:57;;;;;;;26.30;13.55;;;;;;;1.42;81.85;102349.88;5066548;28;20536;-76
2022/03/07 06:51:24;;;;;;;27.52;13.70;;;;;;;1.40;81.36;102360.25;5068485;28;20109;-75
2022/03/07 06:53:50;;;;;;;30.90;14.15;;;;;;;1.44;82.32;102366.75;5066579;28;20083;-75
2022/03/07 06:56:17;;;;;;;28.08;13.77;;;;;;;1.50;82.81;102358.19;5069603;28;20057;-75
2022/03/07 06:58:45;;;;;;;26.20;13.25;;;;;;;1.57;81.97;102363.25;5067001;28;20084;-75
2022/03/07 07:01:13;;;;;;;38.00;13.90;;;;;;;1.63;82.16;102365.63;5070099;28;20432;-75
2022/03/07 07:03:40;;;;;;;30.02;13.10;;;;;;;1.64;82.06;102359.06;5071383;28;20048;-74
2022/03/07 07:06:06;;;;;;;27.02;14.15;;;;;;;1.60;81.21;102366.22;5071095;28;20064;-75
2022/03/07 07:08:33;;;;;;;27.20;12.52;;;;;;;1.64;80.96;102369.97;5068158;28;20658;-73
2022/03/07 07:10:59;;;;;;;29.30;14.07;;;;;;;1.67;81.32;102372.09;5061010;28;20094;-74
2022/03/07 07:13:26;;;;;;;28.05;14.02;;;;;;;1.70;81.87;102366.06;5069701;28;20083;-75
2022/03/07 07:15:55;;;;;;;25.88;12.60;;;;;;;1.74;82.02;102372.53;5069518;28;20071;-73
2022/03/07 07:18:23;;;;;;;27.08;13.68;;;;;;;1.79;80.97;102375.16;5069185;28;20416;-74
2022/03/07 07:20:50;;;;;;;26.20;14.10;;;;;;;1.83;81.14;102368.00;5068199;28;20074;-74
2022/03/07 07:23:21;;;;;;;29.67;14.95;;;;;;;1.92;81.31;102379.03;5068161;28;20083;-76
2022/03/07 07:25:48;;;;;;;28.83;14.18;;;;;;;1.98;81.23;102373.22;5066934;28;20102;-74
2022/03/07 07:28:15;;;;;;;30.58;15.30;;;;;;;2.05;80.37;102378.25;5068942;28;20049;-75
2022/03/07 07:30:42;;;;;;;29.83;14.95;;;;;;;2.14;79.89;102371.00;5068660;28;20139;-74
2022/03/07 07:33:08;;;;;;;27.75;15.10;;;;;;;2.18;78.98;102374.75;5066885;28;20048;-74
2022/03/07 07:35:36;;;;;;;31.20;14.38;;;;;;;2.17;78.22;102371.19;5070659;28;20496;-74
2022/03/07 07:38:07;;;;;;;29.80;13.30;;;;;;;2.27;78.05;102381.94;5068113;28;20052;-75
2022/03/07 07:40:34;;;;;;;28.40;13.38;;;;;;;2.31;77.70;102379.44;5068783;28;20076;-73
2022/03/07 07:43:00;;;;;;;28.17;14.20;;;;;;;2.40;77.46;102377.63;5068959;28;20052;-74
2022/03/07 07:45:31;;;;;;;31.50;14.57;;;;;;;2.44;77.28;102365.75;5063483;28;20056;-75
2022/03/07 07:47:59;;;;;;;33.10;14.73;;;;;;;2.54;76.67;102367.50;5065509;28;20521;-74
2022/03/07 07:50:27;;;;;;;27.60;13.52;;;;;;;2.63;76.31;102368.41;5071475;28;20083;-74
2022/03/07 07:52:56;;;;;;;37.40;15.02;;;;;;;2.67;75.23;102366.69;5068345;28;20159;-73
2022/03/07 07:55:24;;;;;;;35.90;15.27;;;;;;;2.72;74.78;102372.06;5068656;28;20114;-74
2022/03/07 07:57:51;;;;;;;28.17;14.30;;;;;;;2.74;74.93;102367.88;5068060;28;20127;-73
2022/03/07 08:00:21;;;;;;;28.25;12.70;;;;;;;2.78;74.72;102376.31;5067770;28;20135;-72
2022/03/07 08:02:48;;;;;;;37.33;13.30;;;;;;;2.81;74.14;102372.16;5067388;28;20075;-72
2022/03/07 08:05:18;;;;;;;38.15;13.27;;;;;;;2.86;73.85;102378.31;5067756;28;20080;-72
2022/03/07 08:07:46;;;;;;;23.92;11.80;;;;;;;2.90;73.57;102378.53;5066724;28;20105;-73
2022/03/07 08:10:15;;;;;;;29.35;13.50;;;;;;;2.92;72.27;102382.56;5067065;28;20052;-72
2022/03/07 08:12:42;;;;;;;27.35;13.45;;;;;;;2.96;71.92;102383.56;5067304;28;20052;-72
2022/03/07 08:15:12;;;;;;;27.80;13.13;;;;;;;3.01;71.95;102385.38;5066845;28;20057;-72
2022/03/07 08:17:46;;;;;;;28.15;12.90;;;;;;;3.01;71.83;102386.22;5067644;28;20453;-72
2022/03/07 08:20:13;;;;;;;27.25;13.35;;;;;;;2.99;71.81;102376.66;5075055;28;20473;-71
2022/03/07 08:22:43;;;;;;;21.88;10.43;;;;;;;3.13;69.75;102386.47;5065094;28;20106;-72
2022/03/07 08:25:10;;;;;;;18.75;9.32;;;;;;;3.23;67.56;102393.63;5068181;28;20052;-72
2022/03/07 08:27:37;;;;;;;16.90;8.88;;;;;;;3.33;66.50;102399.69;5066085;28;20040;-72
2022/03/07 08:30:07;;;;;;;21.83;10.13;;;;;;;3.42;65.61;102394.31;5066735;28;20080;-73
2022/03/07 08:32:36;;;;;;;21.60;10.15;;;;;;;3.52;65.25;102397.63;5066865;28;20121;-73
2022/03/07 08:35:04;;;;;;;21.23;10.57;;;;;;;3.59;63.72;102392.53;5065769;28;20071;-73
2022/03/07 08:37:32;;;;;;;17.48;7.80;;;;;;;3.68;63.27;102390.66;5065555;28;20052;-73
2022/03/07 08:40:00;;;;;;;19.65;9.63;;;;;;;3.77;62.62;102394.25;5067481;28;20136;-73
2022/03/07 08:42:27;;;;;;;19.58;9.88;;;;;;;3.85;62.02;102396.25;5066735;28;20054;-72
2022/03/07 08:44:54;;;;;;;19.80;9.85;;;;;;;3.96;62.06;102402.28;5064931;28;20054;-70
2022/03/07 08:47:20;;;;;;;17.77;8.02;;;;;;;4.11;63.08;102407.38;5067613;28;20044;-73
2022/03/07 08:49:47;;;;;;;17.80;7.78;;;;;;;4.21;61.38;102405.19;5065893;28;20048;-72
2022/03/07 08:52:17;;;;;;;15.10;7.65;;;;;;;4.28;60.04;102400.06;5067164;28;20048;-72
2022/03/07 08:54:46;;;;;;;14.75;6.97;;;;;;;4.41;58.83;102403.81;5065965;28;20060;-72
2022/03/07 08:57:13;;;;;;;18.80;7.45;;;;;;;4.45;58.27;102394.66;5064933;28;20480;-72
2022/03/07 08:59:41;;;;;;;12.75;6.13;;;;;;;4.57;58.12;102397.63;5066975;28;20127;-73
2022/03/07 09:02:09;;;;;;;14.25;5.75;;;;;;;4.60;56.66;102399.75;5052561;28;20159;-73
2022/03/07 09:04:42;;;;;;;18.67;7.57;;;;;;;4.69;56.91;102389.59;5066535;28;20048;-73
2022/03/07 09:07:09;;;;;;;19.38;7.97;;;;;;;4.84;57.27;102394.66;5067493;28;20095;-73
2022/03/07 09:09:35;;;;;;;14.23;6.47;;;;;;;4.94;56.35;102385.31;5075170;28;20416;-72
2022/03/07 09:12:03;;;;;;;12.63;5.95;;;;;;;5.01;55.26;102386.47;5066046;28;20057;-73
2022/03/07 09:14:30;;;;;;;15.32;6.03;;;;;;;5.09;55.88;102382.94;5066905;28;20084;-73
2022/03/07 09:16:58;;;;;;;12.93;5.65;;;;;;;5.20;55.03;102383.44;5067702;28;20136;-72
2022/03/07 09:19:24;;;;;;;14.70;6.82;;;;;;;5.27;53.66;102373.59;5067196;28;20440;-73
2022/03/07 09:21:51;;;;;;;13.35;5.57;;;;;;;5.23;53.51;102366.31;5067275;28;20151;-72
2022/03/07 09:24:18;;;;;;;9.50;4.25;;;;;;;5.41;53.67;102367.94;5065285;28;20101;-73
2022/03/07 09:26:46;;;;;;;11.13;5.80;;;;;;;5.52;54.11;102368.41;5066474;28;20049;-71
2022/03/07 09:29:12;;;;;;;11.98;5.18;;;;;;;5.63;53.21;102372.47;5062633;28;20476;-72
2022/03/07 09:31:39;;;;;;;14.50;5.45;;;;;;;5.80;53.26;102372.47;5067558;28;20056;-73
2022/03/07 09:34:06;;;;;;;15.48;6.07;;;;;;;5.91;52.81;102373.75;5066338;28;20075;-72
2022/03/07 09:36:35;;;;;;;13.98;6.10;;;;;;;5.99;52.81;102376.50;5066173;28;20044;-73
2022/03/07 09:39:03;;;;;;;11.85;4.53;;;;;;;6.08;51.77;102368.22;5065340;28;20098;-72
2022/03/07 09:41:29;;;;;;;13.27;5.80;;;;;;;6.07;51.16;102375.66;5065485;28;20320;-72
2022/03/07 09:43:56;;;;;;;12.40;5.72;;;;;;;6.01;50.83;102374.22;5065771;28;20097;-72
2022/03/07 09:46:23;;;;;;;12.85;5.07;;;;;;;6.03;50.32;102371.94;5067871;28;20091;-71
2022/03/07 09:48:50;;;;;;;16.17;7.38;;;;;;;6.10;51.16;102368.69;5067987;28;20068;-73
2022/03/07 09:51:16;;;;;;;14.65;6.18;;;;;;;6.24;50.76;102369.31;5062915;28;20780;-74
2022/03/07 09:53:43;;;;;;;9.32;4.28;;;;;;;6.34;50.75;102371.72;5066381;28;20124;-70
2022/03/07 09:56:09;;;;;;;10.65;3.58;;;;;;;6.48;51.46;102375.06;5065409;28;20123;-72
2022/03/07 09:58:36;;;;;;;13.05;5.63;;;;;;;6.52;50.34;102371.28;5064673;28;20110;-71
2022/03/07 10:01:19;;;;;;;11.43;5.25;;;;;;;6.70;49.88;102372.03;5067209;28;20095;-72
2022/03/07 10:03:48;;;;;;;5.60;2.53;;;;;;;6.86;49.56;102364.81;5064317;28;20059;-72
2022/03/07 10:06:19;;;;;;;13.13;4.97;;;;;;;7.01;49.21;102356.78;5065813;28;20056;-71
2022/03/07 10:08:54;;;;;;;14.30;6.15;;;;;;;7.14;49.58;102364.00;5077559;28;20069;-71
2022/03/07 10:11:21;;;;;;;10.50;4.40;;;;;;;7.25;49.55;102361.63;5070406;28;20131;-72
2022/03/07 10:13:56;;;;;;;4.55;2.30;;;;;;;7.24;48.24;102360.84;5071900;28;20755;-72
2022/03/07 10:16:41;;;;;;;8.82;3.08;;;;;;;7.39;48.22;102362.19;5067711;28;20055;-70
2022/03/07 10:19:13;;;;;;;12.77;5.45;;;;;;;7.44;48.71;102359.22;5065038;28;20789;-71
2022/03/07 10:21:50;;;;;;;12.82;5.07;;;;;;;7.55;47.71;102352.97;5064746;28;20076;-72
2022/03/07 10:24:19;;;;;;;8.60;3.63;;;;;;;7.72;48.35;102349.25;5057160;28;20062;-72
2022/03/07 10:26:46;;;;;;;11.57;4.30;;;;;;;7.82;48.14;102344.13;5061431;28;20048;-72
2022/03/07 10:29:13;;;;;;;8.60;3.67;;;;;;;7.86;47.14;102352.50;5063000;28;20049;-72
2022/03/07 10:31:58;;;;;;;8.27;2.88;;;;;;;7.91;47.07;102338.53;5052893;28;20063;-73
2022/03/07 10:34:26;;;;;;;12.15;4.90;;;;;;;8.03;46.81;102338.53;5053261;28;20496;-73
2022/03/07 10:36:53;;;;;;;13.02;4.70;;;;;;;8.05;46.73;102344.53;5066080;28;20416;-74
2022/03/07 10:39:26;;;;;;;11.73;4.78;;;;;;;8.09;45.84;102330.88;5065203;28;20762;-73
2022/03/07 10:41:53;;;;;;;10.50;4.07;;;;;;;8.13;45.48;102329.84;5045383;28;20063;-74
2022/03/07 10:44:27;;;;;;;7.50;3.63;;;;;;;8.22;45.67;102330.59;5049290;28;20866;-71
2022/03/07 10:47:05;;;;;;;11.27;4.28;;;;;;;8.22;45.15;102330.59;5067653;28;20049;-72
2022/03/07 10:49:32;;;;;;;7.65;3.97;;;;;;;8.39;45.98;102330.38;5067285;28;20056;-71
2022/03/07 10:52:02;;;;;;;11.50;4.78;;;;;;;8.51;45.38;102326.81;5068415;28;20074;-72
2022/03/07 10:54:29;;;;;;;12.27;5.22;;;;;;;8.51;44.74;102302.81;5068004;28;20644;-72
2022/03/07 10:56:56;;;;;;;14.70;6.00;;;;;;;8.65;44.63;102314.28;5066718;28;20098;-73
2022/03/07 10:59:31;;;;;;;11.15;4.97;;;;;;;8.74;44.58;102297.59;5065237;28;20139;-73
2022/03/07 11:02:09;;;;;;;11.77;4.93;;;;;;;8.96;44.94;102302.63;5069333;28;20097;-73
2022/03/07 11:04:38;;;;;;;19.65;9.48;;;;;;;9.10;43.88;102303.84;5067810;28;20067;-74
2022/03/07 11:07:06;;;;;;;6.85;3.47;;;;;;;9.27;43.52;102298.06;5082769;28;20049;-72
2022/03/07 11:09:33;;;;;;;10.27;4.43;;;;;;;9.47;43.14;102301.78;5072821;28;20041;-74
2022/03/07 11:12:00;;;;;;;8.02;4.45;;;;;;;9.68;43.32;102297.66;5065731;28;20845;-74
2022/03/07 11:14:27;;;;;;;17.05;5.57;;;;;;;10.30;41.86;102300.50;5068260;28;20950;-74
2022/03/07 11:16:56;;;;;;;10.32;3.22;;;;;;;10.79;40.61;102287.03;5066651;28;20066;-75
2022/03/07 11:19:25;;;;;;;6.55;3.35;;;;;;;11.34;39.59;102291.44;5064718;28;20059;-75
2022/03/07 11:21:54;;;;;;;7.68;4.05;;;;;;;11.82;39.27;102299.97;5070035;28;20131;-74